sensor_id;sensor_type;location;lat;lon;timestamp;pressure;altitude;pressure_sealevel;temperature;humidity
75312;BME280;63906;55.686;37.532;2024-01-07T00:02:00;99704.91;;;-16.65;77.46
75312;BME280;63906;55.686;37.532;2024-01-07T00:07:01;99645.00;;;-17.03;77.60
75312;BME280;63906;55.686;37.532;2024-01-07T00:12:01;99745.28;;;-16.69;77.35
75312;BME280;63906;55.686;37.532;2024-01-07T00:17:02;99732.91;;;-16.88;77.33
75312;BME280;63906;55.686;37.532;2024-01-07T00:22:03;99748.00;;;-16.86;77.22
75312;BME280;63906;55.686;37.532;2024-01-07T00:27:03;99734.78;;;-17.08;77.50
75312;BME280;63906;55.686;37.532;2024-01-07T00:32:04;99709.06;;;-17.34;77.14
75312;BME280;63906;55.686;37.532;2024-01-07T00:37:05;99776.69;;;-17.04;77.33
75312;BME280;63906;55.686;37.532;2024-01-07T00:42:05;99757.59;;;-17.26;77.14
75312;BME280;63906;55.686;37.532;2024-01-07T00:47:06;99786.13;;;-17.27;77.22
75312;BME280;63906;55.686;37.532;2024-01-07T00:52:06;99770.44;;;-17.54;77.26
75312;BME280;63906;55.686;37.532;2024-01-07T00:57:07;99740.41;;;-17.69;77.20
75312;BME280;63906;55.686;37.532;2024-01-07T01:02:07;99747.16;;;-17.77;77.07
75312;BME280;63906;55.686;37.532;2024-01-07T01:07:08;99735.56;;;-17.92;77.41
75312;BME280;63906;55.686;37.532;2024-01-07T01:12:08;99804.13;;;-17.78;77.61
75312;BME280;63906;55.686;37.532;2024-01-07T01:17:08;99838.34;;;-17.60;77.42
75312;BME280;63906;55.686;37.532;2024-01-07T01:22:09;99762.44;;;-18.05;77.09
75312;BME280;63906;55.686;37.532;2024-01-07T01:27:09;99867.69;;;-17.60;76.64
75312;BME280;63906;55.686;37.532;2024-01-07T01:32:11;99841.81;;;-17.72;76.85
75312;BME280;63906;55.686;37.532;2024-01-07T01:37:11;99871.91;;;-17.70;76.52
75312;BME280;63906;55.686;37.532;2024-01-07T01:42:12;99841.16;;;-18.13;76.80
75312;BME280;63906;55.686;37.532;2024-01-07T01:47:12;99870.41;;;-17.91;76.46
75312;BME280;63906;55.686;37.532;2024-01-07T01:52:13;99888.03;;;-18.00;75.97
75312;BME280;63906;55.686;37.532;2024-01-07T01:57:17;99827.94;;;-18.47;76.03
75312;BME280;63906;55.686;37.532;2024-01-07T02:02:19;99912.38;;;-18.13;75.85
75312;BME280;63906;55.686;37.532;2024-01-07T02:07:20;99879.78;;;-18.40;75.88
75312;BME280;63906;55.686;37.532;2024-01-07T02:12:21;99927.44;;;-18.22;75.87
75312;BME280;63906;55.686;37.532;2024-01-07T02:17:21;99929.16;;;-18.42;75.70
75312;BME280;63906;55.686;37.532;2024-01-07T02:22:22;99935.84;;;-18.38;75.70
75312;BME280;63906;55.686;37.532;2024-01-07T02:27:22;99942.56;;;-18.43;75.53
75312;BME280;63906;55.686;37.532;2024-01-07T02:32:23;99857.34;;;-18.98;75.24
75312;BME280;63906;55.686;37.532;2024-01-07T02:37:23;99941.75;;;-18.61;75.32
75312;BME280;63906;55.686;37.532;2024-01-07T02:42:24;99914.19;;;-18.79;75.52
75312;BME280;63906;55.686;37.532;2024-01-07T02:47:24;99930.06;;;-18.72;75.74
75312;BME280;63906;55.686;37.532;2024-01-07T02:52:24;99933.41;;;-18.83;75.71
75312;BME280;63906;55.686;37.532;2024-01-07T02:57:25;99946.81;;;-18.97;75.73
75312;BME280;63906;55.686;37.532;2024-01-07T03:02:25;99853.97;;;-19.74;75.55
75312;BME280;63906;55.686;37.532;2024-01-07T03:07:26;99966.84;;;-19.23;75.99
75312;BME280;63906;55.686;37.532;2024-01-07T03:12:26;99982.69;;;-19.29;76.41
75312;BME280;63906;55.686;37.532;2024-01-07T03:17:27;99968.47;;;-19.33;76.56
75312;BME280;63906;55.686;37.532;2024-01-07T03:22:27;99980.16;;;-19.43;75.87
75312;BME280;63906;55.686;37.532;2024-01-07T03:27:28;100017.84;;;-19.11;76.78
75312;BME280;63906;55.686;37.532;2024-01-07T03:32:28;100000.25;;;-19.29;76.36
75312;BME280;63906;55.686;37.532;2024-01-07T03:37:29;99950.84;;;-19.70;76.16
75312;BME280;63906;55.686;37.532;2024-01-07T03:42:29;100028.69;;;-19.16;75.79
75312;BME280;63906;55.686;37.532;2024-01-07T03:47:30;100017.81;;;-19.23;76.55
75312;BME280;63906;55.686;37.532;2024-01-07T03:52:31;100045.47;;;-19.00;75.70
75312;BME280;63906;55.686;37.532;2024-01-07T03:57:33;99975.94;;;-19.51;75.94
75312;BME280;63906;55.686;37.532;2024-01-07T04:02:33;100034.56;;;-19.11;75.08
75312;BME280;63906;55.686;37.532;2024-01-07T04:07:34;100041.97;;;-19.39;74.32
75312;BME280;63906;55.686;37.532;2024-01-07T04:12:34;100057.81;;;-19.50;74.14
75312;BME280;63906;55.686;37.532;2024-01-07T04:17:35;100073.63;;;-19.71;73.98
75312;BME280;63906;55.686;37.532;2024-01-07T04:22:35;99996.50;;;-20.21;74.32
75312;BME280;63906;55.686;37.532;2024-01-07T04:27:36;100096.13;;;-19.77;74.08
75312;BME280;63906;55.686;37.532;2024-01-07T04:32:37;100076.75;;;-20.03;74.17
75312;BME280;63906;55.686;37.532;2024-01-07T04:37:38;100119.34;;;-20.00;73.86
75312;BME280;63906;55.686;37.532;2024-01-07T04:42:38;100040.59;;;-20.46;73.47
75312;BME280;63906;55.686;37.532;2024-01-07T04:47:39;100106.66;;;-20.23;73.91
75312;BME280;63906;55.686;37.532;2024-01-07T04:52:39;100134.25;;;-20.17;73.79
75312;BME280;63906;55.686;37.532;2024-01-07T04:57:40;100112.34;;;-20.37;73.65
75312;BME280;63906;55.686;37.532;2024-01-07T05:02:40;100061.22;;;-20.72;73.38
75312;BME280;63906;55.686;37.532;2024-01-07T05:07:41;100154.16;;;-20.29;73.66
75312;BME280;63906;55.686;37.532;2024-01-07T05:12:42;100151.47;;;-20.52;73.44
75312;BME280;63906;55.686;37.532;2024-01-07T05:17:42;100163.09;;;-20.57;73.53
75312;BME280;63906;55.686;37.532;2024-01-07T05:22:43;100181.44;;;-20.58;73.21
75312;BME280;63906;55.686;37.532;2024-01-07T05:27:43;100196.34;;;-20.67;73.03
75312;BME280;63906;55.686;37.532;2024-01-07T05:32:44;100202.91;;;-20.75;73.10
75312;BME280;63906;55.686;37.532;2024-01-07T05:37:44;100205.31;;;-20.83;73.13
75312;BME280;63906;55.686;37.532;2024-01-07T05:42:45;100200.22;;;-20.92;73.16
75312;BME280;63906;55.686;37.532;2024-01-07T05:47:45;100227.75;;;-20.90;72.88
75312;BME280;63906;55.686;37.532;2024-01-07T05:52:45;100198.19;;;-21.17;72.92
75312;BME280;63906;55.686;37.532;2024-01-07T05:57:46;100171.41;;;-21.31;72.86
75312;BME280;63906;55.686;37.532;2024-01-07T06:02:48;100257.66;;;-20.98;73.13
75312;BME280;63906;55.686;37.532;2024-01-07T06:07:48;100239.25;;;-21.02;72.97
75312;BME280;63906;55.686;37.532;2024-01-07T06:12:49;100218.28;;;-21.11;72.96
75312;BME280;63906;55.686;37.532;2024-01-07T06:17:49;100239.25;;;-21.03;72.97
75312;BME280;63906;55.686;37.532;2024-01-07T06:22:50;100256.56;;;-21.15;72.83
75312;BME280;63906;55.686;37.532;2024-01-07T06:27:51;100279.22;;;-21.05;72.77
75312;BME280;63906;55.686;37.532;2024-01-07T06:32:52;100290.09;;;-21.01;73.03
75312;BME280;63906;55.686;37.532;2024-01-07T06:37:53;100271.34;;;-21.31;73.42
75312;BME280;63906;55.686;37.532;2024-01-07T06:42:53;100268.97;;;-21.23;73.46
75312;BME280;63906;55.686;37.532;2024-01-07T06:47:54;100275.00;;;-21.07;73.21
75312;BME280;63906;55.686;37.532;2024-01-07T06:52:55;100327.50;;;-21.09;73.77
75312;BME280;63906;55.686;37.532;2024-01-07T06:57:55;100261.41;;;-21.25;73.73
75312;BME280;63906;55.686;37.532;2024-01-07T07:02:56;100337.88;;;-20.83;73.40
75312;BME280;63906;55.686;37.532;2024-01-07T07:07:56;100293.44;;;-20.99;74.09
75312;BME280;63906;55.686;37.532;2024-01-07T07:12:57;100260.00;;;-21.07;73.29
75312;BME280;63906;55.686;37.532;2024-01-07T07:17:57;100341.53;;;-20.58;72.90
75312;BME280;63906;55.686;37.532;2024-01-07T07:22:58;100352.53;;;-20.48;72.99
75312;BME280;63906;55.686;37.532;2024-01-07T07:27:58;100359.50;;;-20.23;73.16
75312;BME280;63906;55.686;37.532;2024-01-07T07:32:58;100364.88;;;-19.92;73.31
75312;BME280;63906;55.686;37.532;2024-01-07T07:37:59;100327.38;;;-19.86;73.46
75312;BME280;63906;55.686;37.532;2024-01-07T07:42:59;100336.56;;;-19.82;73.23
75312;BME280;63906;55.686;37.532;2024-01-07T07:48:00;100318.75;;;-20.08;73.44
75312;BME280;63906;55.686;37.532;2024-01-07T07:53:00;100369.44;;;-19.50;73.62
75312;BME280;63906;55.686;37.532;2024-01-07T07:58:03;100377.16;;;-19.30;73.09
75312;BME280;63906;55.686;37.532;2024-01-07T08:03:04;100380.47;;;-19.34;72.83
75312;BME280;63906;55.686;37.532;2024-01-07T08:08:05;100321.59;;;-19.79;72.92
75312;BME280;63906;55.686;37.532;2024-01-07T08:13:05;100314.91;;;-19.77;72.31
75312;BME280;63906;55.686;37.532;2024-01-07T08:18:07;100382.88;;;-19.43;73.33
75312;BME280;63906;55.686;37.532;2024-01-07T08:23:07;100440.16;;;-18.98;73.11
75312;BME280;63906;55.686;37.532;2024-01-07T08:28:08;100411.44;;;-19.29;73.03
75312;BME280;63906;55.686;37.532;2024-01-07T08:33:08;100431.09;;;-18.76;73.88
75312;BME280;63906;55.686;37.532;2024-01-07T08:38:09;100437.06;;;-18.62;73.54
75312;BME280;63906;55.686;37.532;2024-01-07T08:43:09;100435.34;;;-18.72;73.01
75312;BME280;63906;55.686;37.532;2024-01-07T08:48:10;100457.81;;;-18.84;73.05
75312;BME280;63906;55.686;37.532;2024-01-07T08:53:12;100431.75;;;-19.01;72.83
75312;BME280;63906;55.686;37.532;2024-01-07T08:58:13;100358.50;;;-19.56;72.79
75312;BME280;63906;55.686;37.532;2024-01-07T09:03:14;100397.72;;;-19.63;72.30
75312;BME280;63906;55.686;37.532;2024-01-07T09:08:15;100427.84;;;-19.62;71.92
75312;BME280;63906;55.686;37.532;2024-01-07T09:13:16;100394.84;;;-19.98;71.63
75312;BME280;63906;55.686;37.532;2024-01-07T09:18:16;100466.28;;;-19.58;72.08
75312;BME280;63906;55.686;37.532;2024-01-07T09:23:17;100417.41;;;-19.95;72.00
75312;BME280;63906;55.686;37.532;2024-01-07T09:28:17;100435.16;;;-19.80;72.06
75312;BME280;63906;55.686;37.532;2024-01-07T09:33:18;100458.81;;;-19.53;72.10
75312;BME280;63906;55.686;37.532;2024-01-07T09:38:20;100427.84;;;-19.62;72.91
75312;BME280;63906;55.686;37.532;2024-01-07T09:43:20;100477.47;;;-19.27;72.68
75312;BME280;63906;55.686;37.532;2024-01-07T09:48:21;100466.47;;;-19.40;72.32
75312;BME280;63906;55.686;37.532;2024-01-07T09:53:25;100451.19;;;-19.66;72.94
75312;BME280;63906;55.686;37.532;2024-01-07T09:58:25;100401.78;;;-19.76;73.02
75312;BME280;63906;55.686;37.532;2024-01-07T10:03:26;100494.25;;;-19.20;73.05
75312;BME280;63906;55.686;37.532;2024-01-07T10:08:26;100479.34;;;-19.09;72.72
75312;BME280;63906;55.686;37.532;2024-01-07T10:13:30;100251.47;;;-20.58;72.60
75312;BME280;63906;55.686;37.532;2024-01-07T10:18:31;100463.44;;;-19.11;73.00
75312;BME280;63906;55.686;37.532;2024-01-07T10:23:34;100429.88;;;-19.24;72.58
75312;BME280;63906;55.686;37.532;2024-01-07T10:28:34;100504.75;;;-18.74;72.73
75312;BME280;63906;55.686;37.532;2024-01-07T10:33:35;100503.13;;;-18.69;72.90
75312;BME280;63906;55.686;37.532;2024-01-07T10:38:36;100517.50;;;-18.46;72.73
75312;BME280;63906;55.686;37.532;2024-01-07T10:43:38;100486.38;;;-18.70;72.55
75312;BME280;63906;55.686;37.532;2024-01-07T10:49:04;100477.28;;;-18.56;72.57
75312;BME280;63906;55.686;37.532;2024-01-07T10:54:06;100479.00;;;-18.45;72.62
75312;BME280;63906;55.686;37.532;2024-01-07T10:59:08;100478.22;;;-18.43;72.70
75312;BME280;63906;55.686;37.532;2024-01-07T11:04:34;100504.19;;;-18.36;72.88
75312;BME280;63906;55.686;37.532;2024-01-07T11:09:54;100477.34;;;-18.45;73.17
75312;BME280;63906;55.686;37.532;2024-01-07T11:14:56;100511.03;;;-18.15;73.47
75312;BME280;63906;55.686;37.532;2024-01-07T11:19:59;100427.91;;;-18.55;73.85
75312;BME280;63906;55.686;37.532;2024-01-07T11:25:01;100496.97;;;-17.92;74.07
75312;BME280;63906;55.686;37.532;2024-01-07T11:30:02;100518.00;;;-17.73;73.65
75312;BME280;63906;55.686;37.532;2024-01-07T11:35:05;100507.13;;;-17.74;73.51
75312;BME280;63906;55.686;37.532;2024-01-07T11:40:06;100499.56;;;-17.74;73.92
75312;BME280;63906;55.686;37.532;2024-01-07T11:45:07;100494.47;;;-17.84;73.97
75312;BME280;63906;55.686;37.532;2024-01-07T11:50:10;100525.53;;;-17.67;73.65
75312;BME280;63906;55.686;37.532;2024-01-07T11:55:11;100507.00;;;-17.93;73.12
75312;BME280;63906;55.686;37.532;2024-01-07T12:00:12;100521.13;;;-18.09;73.30
75312;BME280;63906;55.686;37.532;2024-01-07T12:05:13;100516.94;;;-18.09;73.24
75312;BME280;63906;55.686;37.532;2024-01-07T12:10:16;100524.34;;;-18.27;73.03
75312;BME280;63906;55.686;37.532;2024-01-07T12:15:18;100534.38;;;-18.32;73.95
75312;BME280;63906;55.686;37.532;2024-01-07T12:20:20;100516.81;;;-18.30;74.20
75312;BME280;63906;55.686;37.532;2024-01-07T12:25:22;100531.97;;;-18.18;73.39
75312;BME280;63906;55.686;37.532;2024-01-07T12:30:25;100515.88;;;-18.38;73.27
75312;BME280;63906;55.686;37.532;2024-01-07T12:35:26;100530.94;;;-18.41;74.04
75312;BME280;63906;55.686;37.532;2024-01-07T12:40:28;100530.16;;;-18.37;73.42
75312;BME280;63906;55.686;37.532;2024-01-07T12:45:28;100521.63;;;-18.52;74.13
75312;BME280;63906;55.686;37.532;2024-01-07T12:50:29;100458.66;;;-18.82;74.02
75312;BME280;63906;55.686;37.532;2024-01-07T12:55:31;100517.56;;;-18.39;73.74
75312;BME280;63906;55.686;37.532;2024-01-07T13:00:32;100560.44;;;-18.16;74.05
75312;BME280;63906;55.686;37.532;2024-01-07T13:05:34;100556.19;;;-18.25;74.01
75312;BME280;63906;55.686;37.532;2024-01-07T13:10:35;100568.72;;;-18.26;73.70
75312;BME280;63906;55.686;37.532;2024-01-07T13:15:35;100563.53;;;-18.47;73.98
75312;BME280;63906;55.686;37.532;2024-01-07T13:20:36;100551.00;;;-18.44;74.17
75312;BME280;63906;55.686;37.532;2024-01-07T13:25:38;100564.47;;;-18.35;73.60
75312;BME280;63906;55.686;37.532;2024-01-07T13:30:39;100558.50;;;-18.46;73.73
75312;BME280;63906;55.686;37.532;2024-01-07T13:35:40;100545.00;;;-18.62;73.82
75312;BME280;63906;55.686;37.532;2024-01-07T13:40:41;100555.00;;;-18.65;73.88
75312;BME280;63906;55.686;37.532;2024-01-07T13:45:41;100585.25;;;-18.53;74.22
75312;BME280;63906;55.686;37.532;2024-01-07T13:50:42;100561.66;;;-18.70;74.11
75312;BME280;63906;55.686;37.532;2024-01-07T13:55:43;100589.47;;;-18.48;74.43
75312;BME280;63906;55.686;37.532;2024-01-07T14:00:44;100615.50;;;-18.40;74.12
75312;BME280;63906;55.686;37.532;2024-01-07T14:05:45;100582.72;;;-18.54;74.25
75312;BME280;63906;55.686;37.532;2024-01-07T14:10:46;100589.34;;;-18.62;73.70
75312;BME280;63906;55.686;37.532;2024-01-07T14:15:46;100610.34;;;-18.51;73.71
75312;BME280;63906;55.686;37.532;2024-01-07T14:20:46;100597.66;;;-18.65;73.44
75312;BME280;63906;55.686;37.532;2024-01-07T14:25:47;100601.69;;;-18.82;73.31
75312;BME280;63906;55.686;37.532;2024-01-07T14:30:48;100599.84;;;-18.98;73.44
75312;BME280;63906;55.686;37.532;2024-01-07T14:35:49;100591.31;;;-19.13;73.25
75312;BME280;63906;55.686;37.532;2024-01-07T14:40:49;100547.47;;;-19.45;73.21
75312;BME280;63906;55.686;37.532;2024-01-07T14:45:52;100614.78;;;-19.09;73.49
75312;BME280;63906;55.686;37.532;2024-01-07T14:50:53;100640.78;;;-19.04;73.32
75312;BME280;63906;55.686;37.532;2024-01-07T14:55:54;100575.13;;;-19.38;73.16
75312;BME280;63906;55.686;37.532;2024-01-07T15:00:55;100630.59;;;-19.13;73.51
75312;BME280;63906;55.686;37.532;2024-01-07T15:05:58;100635.50;;;-19.22;73.64
75312;BME280;63906;55.686;37.532;2024-01-07T15:10:58;100661.47;;;-19.19;73.67
75312;BME280;63906;55.686;37.532;2024-01-07T15:15:59;100624.63;;;-19.24;73.38
75312;BME280;63906;55.686;37.532;2024-01-07T15:20:59;100637.22;;;-19.20;73.41
75312;BME280;63906;55.686;37.532;2024-01-07T15:26:00;100659.94;;;-19.08;73.38
75312;BME280;63906;55.686;37.532;2024-01-07T15:31:00;100596.66;;;-19.53;73.52
75312;BME280;63906;55.686;37.532;2024-01-07T15:36:04;100607.78;;;-19.32;73.42
75312;BME280;63906;55.686;37.532;2024-01-07T15:41:05;100654.97;;;-19.06;73.54
75312;BME280;63906;55.686;37.532;2024-01-07T15:46:05;100675.16;;;-18.95;73.73
75312;BME280;63906;55.686;37.532;2024-01-07T15:51:06;100671.78;;;-18.99;73.65
75312;BME280;63906;55.686;37.532;2024-01-07T15:56:06;100644.66;;;-19.26;73.45
75312;BME280;63906;55.686;37.532;2024-01-07T16:01:07;100662.41;;;-19.12;73.83
75312;BME280;63906;55.686;37.532;2024-01-07T16:06:08;100649.66;;;-19.27;73.43
75312;BME280;63906;55.686;37.532;2024-01-07T16:11:08;100683.31;;;-19.12;73.49
75312;BME280;63906;55.686;37.532;2024-01-07T16:16:11;100592.34;;;-19.67;73.25
75312;BME280;63906;55.686;37.532;2024-01-07T16:21:12;100678.06;;;-19.27;73.54
75312;BME280;63906;55.686;37.532;2024-01-07T16:26:12;100661.31;;;-19.31;73.64
75312;BME280;63906;55.686;37.532;2024-01-07T16:31:13;100652.97;;;-19.30;73.37
75312;BME280;63906;55.686;37.532;2024-01-07T16:36:13;100666.44;;;-19.25;73.65
75312;BME280;63906;55.686;37.532;2024-01-07T16:41:14;100696.88;;;-18.97;73.56
75312;BME280;63906;55.686;37.532;2024-01-07T16:46:15;100684.13;;;-19.13;73.44
75312;BME280;63906;55.686;37.532;2024-01-07T16:51:15;100668.09;;;-19.24;73.45
75312;BME280;63906;55.686;37.532;2024-01-07T16:56:16;100712.63;;;-19.08;73.08
75312;BME280;63906;55.686;37.532;2024-01-07T17:01:19;100694.03;;;-19.23;73.31
75312;BME280;63906;55.686;37.532;2024-01-07T17:06:20;100702.38;;;-19.24;73.36
75312;BME280;63906;55.686;37.532;2024-01-07T17:11:21;100644.13;;;-19.67;73.18
75312;BME280;63906;55.686;37.532;2024-01-07T17:16:21;100719.59;;;-19.44;73.74
75312;BME280;63906;55.686;37.532;2024-01-07T17:21:24;100633.84;;;-19.84;73.57
75312;BME280;63906;55.686;37.532;2024-01-07T17:26:25;100729.53;;;-19.52;73.61
75312;BME280;63906;55.686;37.532;2024-01-07T17:31:25;100725.44;;;-19.45;73.62
75312;BME280;63906;55.686;37.532;2024-01-07T17:36:26;100750.72;;;-19.32;73.59
75312;BME280;63906;55.686;37.532;2024-01-07T17:41:26;100731.44;;;-19.37;73.71
75312;BME280;63906;55.686;37.532;2024-01-07T17:46:28;100763.34;;;-19.27;73.53
75312;BME280;63906;55.686;37.532;2024-01-07T17:51:28;100738.69;;;-19.55;73.46
75312;BME280;63906;55.686;37.532;2024-01-07T17:56:31;100766.59;;;-19.33;73.63
75312;BME280;63906;55.686;37.532;2024-01-07T18:01:32;100676.13;;;-20.01;73.53
75312;BME280;63906;55.686;37.532;2024-01-07T18:06:32;100695.22;;;-20.07;73.33
75312;BME280;63906;55.686;37.532;2024-01-07T18:11:33;100761.69;;;-19.79;73.68
75312;BME280;63906;55.686;37.532;2024-01-07T18:16:33;100791.16;;;-19.65;72.95
75312;BME280;63906;55.686;37.532;2024-01-07T18:21:34;100759.69;;;-19.97;72.88
75312;BME280;63906;55.686;37.532;2024-01-07T18:26:34;100774.88;;;-19.90;72.88
75312;BME280;63906;55.686;37.532;2024-01-07T18:31:39;100763.78;;;-20.02;72.58
75312;BME280;63906;55.686;37.532;2024-01-07T18:36:40;100776.38;;;-19.99;72.42
75312;BME280;63906;55.686;37.532;2024-01-07T18:41:41;100782.06;;;-20.06;72.77
75312;BME280;63906;55.686;37.532;2024-01-07T18:46:43;100754.88;;;-20.32;72.92
75312;BME280;63906;55.686;37.532;2024-01-07T18:51:45;100800.59;;;-19.98;73.17
75312;BME280;63906;55.686;37.532;2024-01-07T18:56:46;100730.44;;;-20.44;72.82
75312;BME280;63906;55.686;37.532;2024-01-07T19:01:47;100779.50;;;-20.09;72.89
75312;BME280;63906;55.686;37.532;2024-01-07T19:06:48;100814.00;;;-19.96;72.62
75312;BME280;63906;55.686;37.532;2024-01-07T19:11:49;100783.72;;;-20.07;72.83
75312;BME280;63906;55.686;37.532;2024-01-07T19:16:49;100805.31;;;-20.12;72.12
75312;BME280;63906;55.686;37.532;2024-01-07T19:21:51;100732.47;;;-20.70;72.35
75312;BME280;63906;55.686;37.532;2024-01-07T19:26:53;100784.56;;;-20.50;72.62
75312;BME280;63906;55.686;37.532;2024-01-07T19:31:53;100785.34;;;-20.54;72.55
75312;BME280;63906;55.686;37.532;2024-01-07T19:36:54;100803.00;;;-20.48;72.37
75312;BME280;63906;55.686;37.532;2024-01-07T19:41:54;100808.78;;;-20.49;72.36
75312;BME280;63906;55.686;37.532;2024-01-07T19:46:55;100775.44;;;-20.89;72.42
75312;BME280;63906;55.686;37.532;2024-01-07T19:51:55;100792.72;;;-20.60;72.83
75312;BME280;63906;55.686;37.532;2024-01-07T19:56:56;100780.78;;;-20.74;72.69
75312;BME280;63906;55.686;37.532;2024-01-07T20:01:56;100803.09;;;-20.81;73.02
75312;BME280;63906;55.686;37.532;2024-01-07T20:06:58;100806.84;;;-20.62;73.06
75312;BME280;63906;55.686;37.532;2024-01-07T20:12:02;100816.91;;;-20.61;72.80
75312;BME280;63906;55.686;37.532;2024-01-07T20:17:03;100796.72;;;-21.06;73.14
75312;BME280;63906;55.686;37.532;2024-01-07T20:22:05;100789.47;;;-20.94;73.59
75312;BME280;63906;55.686;37.532;2024-01-07T20:27:05;100734.50;;;-21.32;73.48
75312;BME280;63906;55.686;37.532;2024-01-07T20:32:06;100811.06;;;-20.61;73.67
75312;BME280;63906;55.686;37.532;2024-01-07T20:37:06;100798.34;;;-20.71;73.03
75312;BME280;63906;55.686;37.532;2024-01-07T20:42:07;100814.28;;;-20.65;72.93
75312;BME280;63906;55.686;37.532;2024-01-07T20:47:07;100780.38;;;-20.92;72.69
75312;BME280;63906;55.686;37.532;2024-01-07T20:52:08;100819.72;;;-20.85;73.51
75312;BME280;63906;55.686;37.532;2024-01-07T20:57:08;100807.25;;;-20.82;73.32
75312;BME280;63906;55.686;37.532;2024-01-07T21:02:09;100808.88;;;-20.84;73.40
75312;BME280;63906;55.686;37.532;2024-01-07T21:07:11;100809.22;;;-20.69;73.15
75312;BME280;63906;55.686;37.532;2024-01-07T21:12:11;100820.94;;;-20.67;73.19
75312;BME280;63906;55.686;37.532;2024-01-07T21:17:12;100819.44;;;-20.59;73.00
75312;BME280;63906;55.686;37.532;2024-01-07T21:22:12;100794.19;;;-20.69;72.87
75312;BME280;63906;55.686;37.532;2024-01-07T21:27:14;100788.94;;;-20.81;73.27
75312;BME280;63906;55.686;37.532;2024-01-07T21:32:15;100793.94;;;-20.81;73.12
75312;BME280;63906;55.686;37.532;2024-01-07T21:37:15;100793.94;;;-20.81;73.50
75312;BME280;63906;55.686;37.532;2024-01-07T21:42:16;100785.03;;;-20.68;73.60
75312;BME280;63906;55.686;37.532;2024-01-07T21:47:16;100815.44;;;-20.50;73.62
75312;BME280;63906;55.686;37.532;2024-01-07T21:52:18;100737.78;;;-20.95;73.04
75312;BME280;63906;55.686;37.532;2024-01-07T21:57:26;100820.44;;;-20.50;72.99
75312;BME280;63906;55.686;37.532;2024-01-07T22:02:27;100815.38;;;-20.54;72.74
75312;BME280;63906;55.686;37.532;2024-01-07T22:07:27;100823.47;;;-20.66;72.62
75312;BME280;63906;55.686;37.532;2024-01-07T22:12:27;100799.69;;;-20.86;72.74
75312;BME280;63906;55.686;37.532;2024-01-07T22:17:28;100827.19;;;-20.86;72.71
75312;BME280;63906;55.686;37.532;2024-01-07T22:22:28;100739.03;;;-21.52;72.82
75312;BME280;63906;55.686;37.532;2024-01-07T22:27:29;100820.00;;;-21.09;72.20
75312;BME280;63906;55.686;37.532;2024-01-07T22:32:29;100805.84;;;-21.08;72.30
75312;BME280;63906;55.686;37.532;2024-01-07T22:37:30;100800.66;;;-21.16;72.22
75312;BME280;63906;55.686;37.532;2024-01-07T22:42:30;100840.25;;;-20.98;72.45
75312;BME280;63906;55.686;37.532;2024-01-07T22:47:31;100819.47;;;-20.96;72.49
75312;BME280;63906;55.686;37.532;2024-01-07T22:52:31;100831.13;;;-20.96;72.17
75312;BME280;63906;55.686;37.532;2024-01-07T22:57:32;100834.69;;;-20.86;72.27
75312;BME280;63906;55.686;37.532;2024-01-07T23:02:33;100804.25;;;-21.05;71.90
75312;BME280;63906;55.686;37.532;2024-01-07T23:07:33;100827.22;;;-21.21;72.01
75312;BME280;63906;55.686;37.532;2024-01-07T23:12:34;100824.59;;;-21.26;71.78
75312;BME280;63906;55.686;37.532;2024-01-07T23:17:35;100792.50;;;-21.45;71.73
75312;BME280;63906;55.686;37.532;2024-01-07T23:22:37;100783.16;;;-21.54;72.40
75312;BME280;63906;55.686;37.532;2024-01-07T23:27:37;100813.16;;;-21.16;72.62
75312;BME280;63906;55.686;37.532;2024-01-07T23:32:39;100811.78;;;-21.03;71.93
75312;BME280;63906;55.686;37.532;2024-01-07T23:37:40;100836.84;;;-21.00;72.18
75312;BME280;63906;55.686;37.532;2024-01-07T23:42:40;100835.25;;;-20.98;72.62
75312;BME280;63906;55.686;37.532;2024-01-07T23:47:41;100849.09;;;-20.75;72.44
75312;BME280;63906;55.686;37.532;2024-01-07T23:52:41;100829.91;;;-20.76;72.53
75312;BME280;63906;55.686;37.532;2024-01-07T23:57:42;100844.22;;;-20.69;72.25
